Time;durP1;ratioP1;P1;durP2;ratioP2;P2;SDS_P1;SDS_P2;PMS_P1;PMS_P2;Temp;Humidity;BMP_temperature;BMP_pressure;BME280_temperature;BME280_humidity;BME280_pressure;Samples;Min_cycle;Max_cycle;Signal;HPM_P1;HPM_P2
2022/05/02 00:03:09;;;;;;;;;;;;;;;;;;;;;
2022/05/02 00:06:08;;;;;;;;;;;;;;;;;;;;;
2022/05/02 00:11:58;;;;;;;;;;;;;;;14.98;49.11;99902.78;4359344;32;35482;-84
2022/05/02 00:14:51;;;;;;;;;;;;;;;15.12;49.04;99896.75;4359680;32;34960;-83
2022/05/02 00:21:06;;;;;;;;;;;;;;;15.63;48.76;99882.88;4339497;33;34936;-83
2022/05/02 00:24:11;;;;;;;;;;;;;;;15.69;48.66;99877.63;4344655;33;34498;-83
2022/05/02 00:27:20;;;;;;;;;;;;;;;;;;;;;
2022/05/02 00:31:17;;;;;;;;;;;;;;;15.48;48.49;99890.00;4315478;33;33040;-83
2022/05/02 00:33:59;;;;;;;;;;;;;;;;;;;;;
2022/05/02 00:47:21;;;;;;;;;;;;;;;;;;;;;
2022/05/02 00:50:56;;;;;;;;;;;;;;;15.75;47.54;99897.56;4321812;33;34483;-83
2022/05/02 00:56:48;;;;;;;;;;;;;;;;;;;;;
2022/05/02 01:03:20;;;;;;;;;;;;;;;15.56;47.50;99901.50;4312383;33;34300;-83
2022/05/02 01:10:10;;;;;;;;;;;;;;;15.69;46.44;99893.72;4376832;32;33148;-84
2022/05/02 01:13:06;;;;;;;;;;;;;;;15.67;46.60;99895.75;4382150;32;34637;-82
2022/05/02 01:16:49;;;;;;;;;;;;;;;15.61;47.04;99896.47;4383253;32;33123;-83
2022/05/02 01:19:21;;;;;;;;;;;;;;;15.62;47.37;99897.28;4406338;32;33495;-84
2022/05/02 01:22:12;;;;;;;;;;;;;;;15.67;47.51;99894.94;4412351;32;34682;-83
2022/05/02 01:25:23;;;;;;;;;;;;;;;;;;;;;
2022/05/02 01:28:31;;;;;;;;;;;;;;;;;;;;;
2022/05/02 01:37:42;;;;;;;;;;;;;;;15.56;48.31;99895.28;4393971;32;33889;-83
2022/05/02 01:50:32;;;;;;;;;;;;;;;15.45;48.66;99906.41;4352408;32;36177;-83
2022/05/02 01:56:42;;;;;;;;;;;;;;;14.72;50.68;99919.06;4409656;32;32959;-83
2022/05/02 02:10:00;;;;;;;;;;;;;;;15.07;51.12;99905.31;4344462;32;34349;-84
2022/05/02 02:12:57;;;;;;;;;;;;;;;15.18;50.77;99906.78;4322631;33;34152;-84
2022/05/02 02:19:29;;;;;;;;;;;;;;;;;;;;;
2022/05/02 02:29:28;;;;;;;;;;;;;;;15.19;51.67;99906.59;4326848;32;34990;-84
2022/05/02 02:33:37;;;;;;;;;;;;;;;15.32;51.38;99906.94;4351759;32;35734;-82
2022/05/02 02:36:21;;;;;;;;;;;;;;;15.30;51.59;99910.78;4388961;32;33032;-84
2022/05/02 02:39:39;;;;;;;;;;;;;;;;;;;;;
2022/05/02 02:42:28;;;;;;;;;;;;;;;15.46;51.57;99905.38;4385929;32;33801;-85
2022/05/02 02:49:14;;;;;;;;;;;;;;;15.48;51.35;99906.06;4395296;32;33918;-84
2022/05/02 02:53:13;;;;;;;;;;;;;;;15.46;51.44;99900.03;4410137;32;34889;-83
2022/05/02 02:55:40;;;;;;;;;;;;;;;15.57;51.13;99905.84;4400438;32;36089;-84
2022/05/02 03:02:05;;;;;;;;;;;;;;;15.59;50.69;99903.84;4386852;32;33620;-84
2022/05/02 03:08:22;;;;;;;;;;;;;;;;;;;;;
2022/05/02 03:12:05;;;;;;;;;;;;;;;15.57;50.67;99899.69;4365992;32;34878;-83
2022/05/02 03:14:26;;;;;;;;;;;;;;;15.27;52.12;99901.22;4337398;32;32446;-84
2022/05/02 03:17:27;;;;;;;;;;;;;;;15.52;51.24;99899.34;4361647;32;33548;-83
2022/05/02 03:21:39;;;;;;;;;;;;;;;15.67;50.75;99895.75;4351686;32;35705;-85
2022/05/02 03:25:11;;;;;;;;;;;;;;;15.66;50.74;99890.56;4357795;32;34799;-84
2022/05/02 03:30:42;;;;;;;;;;;;;;;15.71;50.26;99893.56;4300363;33;33070;-85
2022/05/02 03:34:42;;;;;;;;;;;;;;;15.52;51.13;99893.97;4272550;33;34415;-84
2022/05/02 03:40:06;;;;;;;;;;;;;;;15.76;50.90;99891.22;4291469;33;32852;-83
2022/05/02 03:43:15;;;;;;;;;;;;;;;;;;;;;
2022/05/02 03:59:22;;;;;;;;;;;;;;;15.86;50.90;99879.25;4333701;33;34585;-83
2022/05/02 04:03:13;;;;;;;;;;;;;;;15.87;50.73;99877.41;4341924;32;34102;-84
2022/05/02 04:09:18;;;;;;;;;;;;;;;15.90;50.61;99882.41;4387157;32;34156;-84
2022/05/02 04:12:29;;;;;;;;;;;;;;;15.96;50.40;99877.16;4389205;32;34068;-84
2022/05/02 04:15:39;;;;;;;;;;;;;;;;;;;;;
2022/05/02 04:22:53;;;;;;;;;;;;;;;16.14;50.51;99875.06;4359053;32;34020;-85
2022/05/02 04:26:05;;;;;;;;;;;;;;;16.18;50.85;99878.22;4340238;33;34721;-85
2022/05/02 04:28:36;;;;;;;;;;;;;;;16.22;50.62;99884.91;4313710;33;35843;-84
2022/05/02 04:35:21;;;;;;;;;;;;;;;16.41;50.20;99885.31;4352929;32;34324;-83
2022/05/02 04:41:18;;;;;;;;;;;;;;;;;;;;;
2022/05/02 04:47:23;;;;;;;;;;;;;;;;;;;;;
2022/05/02 04:50:15;;;;;;;;;;;;;;;16.75;50.00;99877.66;4291573;33;34858;-83
2022/05/02 04:53:49;;;;;;;;;;;;;;;16.90;50.13;99885.75;4287946;33;33137;-83
2022/05/02 04:56:40;;;;;;;;;;;;;;;16.87;50.51;99888.78;4329114;33;33073;-80
2022/05/02 04:59:52;;;;;;;;;;;;;;;;;;;;;
2022/05/02 05:06:17;;;;;;;;;;;;;;;16.83;50.53;99907.13;4324716;33;35384;-82
2022/05/02 05:09:15;;;;;;;;;;;;;;;16.71;50.02;99910.44;4343678;33;34665;-82
2022/05/02 05:32:57;;;;;;;;;;;;;;;17.17;46.47;99918.22;4300740;33;35110;-82
2022/05/02 05:36:11;;;;;;;;;;;;;;;17.34;45.03;99910.84;4271503;33;33249;-82
2022/05/02 05:42:34;;;;;;;;;;;;;;;17.31;44.96;99914.72;4271660;33;34906;-81
2022/05/02 05:48:47;;;;;;;;;;;;;;;17.38;48.17;99910.31;4259816;33;32163;-81
2022/05/02 05:52:33;;;;;;;;;;;;;;;17.67;46.32;99903.06;4259685;33;32549;-81
2022/05/02 05:55:34;;;;;;;;;;;;;;;17.86;46.34;99909.75;4271462;33;34934;-81
2022/05/02 05:58:55;;;;;;;;;;;;;;;18.08;46.10;99906.06;4259781;33;35386;-81
2022/05/02 06:04:56;;;;;;;;;;;;;;;17.85;49.42;99908.91;4329689;33;33879;-82
2022/05/02 06:14:15;;;;;;;;;;;;;;;17.79;50.08;99911.50;4369340;32;32989;-82
2022/05/02 06:20:51;;;;;;;;;;;;;;;18.46;46.37;99911.13;4358281;32;35120;-80
2022/05/02 06:43:29;;;;;;;;;;;;;;;18.94;44.88;99907.63;4374177;32;34388;-83
2022/05/02 06:49:45;;;;;;;;;;;;;;;19.07;46.05;99915.81;4371816;32;32901;-84
2022/05/02 06:59:27;;;;;;;;;;;;;;;18.50;44.52;99933.13;4333941;33;35218;-83
2022/05/02 07:03:20;;;;;;;;;;;;;;;18.57;43.68;99926.75;4317120;33;34411;-83
2022/05/02 07:06:15;;;;;;;;;;;;;;;18.39;45.29;99934.44;4332176;32;32667;-81
2022/05/02 07:12:11;;;;;;;;;;;;;;;;;;;;;
2022/05/02 07:22:38;;;;;;;;;;;;;;;17.71;45.57;99942.06;4321805;33;34385;-82
2022/05/02 07:28:17;;;;;;;;;;;;;;;17.97;45.78;99936.19;4368241;32;34322;-83
2022/05/02 07:30:45;;;;;;;;;;;;;;;18.07;43.26;99934.03;4369273;32;33373;-82
2022/05/02 07:33:13;;;;;;;;;;;;;;;18.05;44.17;99936.09;4371553;32;33372;-83
2022/05/02 07:35:40;;;;;;;;;;;;;;;17.89;44.59;99933.59;4366231;32;35400;-81
2022/05/02 07:38:08;;;;;;;;;;;;;;;18.07;43.66;99934.84;4357497;32;33846;-82
2022/05/02 07:40:35;;;;;;;;;;;;;;;18.25;43.01;99935.28;4355824;32;31997;-82
2022/05/02 07:43:03;;;;;;;;;;;;;;;18.42;43.07;99934.06;4356271;32;33673;-83
2022/05/02 07:45:31;;;;;;;;;;;;;;;18.28;44.18;99932.22;4339056;32;34189;-85
2022/05/02 07:48:00;;;;;;;;;;;;;;;18.40;42.54;99927.19;4366968;32;34563;-83
2022/05/02 07:50:28;;;;;;;;;;;;;;;18.52;42.67;99922.97;4375618;32;33499;-83
2022/05/02 07:52:56;;;;;;;;;;;;;;;18.46;43.94;99927.28;4343645;32;33529;-83
2022/05/02 07:55:27;;;;;;;;;;;;;;;18.99;42.01;99929.44;4356858;32;35753;-85
2022/05/02 07:57:54;;;;;;;;;;;;;;;18.93;41.33;99919.44;4357798;32;33910;-83
2022/05/02 08:00:24;;;;;;;;;;;;;;;19.12;41.74;99926.84;4379967;32;33763;-82
2022/05/02 08:02:52;;;;;;;;;;;;;;;19.31;41.43;99918.13;4383659;32;33887;-82
2022/05/02 08:05:21;;;;;;;;;;;;;;;18.87;41.31;99933.69;4389277;32;35116;-83
2022/05/02 08:07:51;;;;;;;;;;;;;;;19.47;40.82;99925.06;4383890;32;33062;-84
2022/05/02 08:10:37;;;;;;;;;;;;;;;19.56;41.13;99924.69;4364926;32;32555;-82
2022/05/02 08:13:12;;;;;;;;;;;;;;;19.77;41.54;99932.72;4375880;32;33149;-82
2022/05/02 08:15:41;;;;;;;;;;;;;;;19.77;40.83;99927.34;4367703;32;33655;-81
2022/05/02 08:18:08;;;;;;;;;;;;;;;20.05;41.77;99928.12;4389484;32;34157;-82
2022/05/02 08:20:38;;;;;;;;;;;;;;;20.28;40.22;99925.09;4376029;32;32943;-83
2022/05/02 08:28:59;;;;;;;;;;;;;;;20.55;40.26;99914.12;4393164;32;34483;-82
2022/05/02 08:31:35;;;;;;;;;;;;;;;20.58;40.99;99913.72;4383980;32;33952;-82
2022/05/02 08:34:04;;;;;;;;;;;;;;;20.88;40.60;99915.88;4379504;32;34843;-82
2022/05/02 08:36:39;;;;;;;;;;;;;;;20.94;38.59;99911.50;4373774;32;35186;-81
2022/05/02 08:39:07;;;;;;;;;;;;;;;21.28;38.43;99903.19;4384797;32;34695;-82
2022/05/02 08:41:50;;;;;;;;;;;;;;;21.42;40.30;99908.38;4378813;32;32809;-83
2022/05/02 08:44:29;;;;;;;;;;;;;;;21.69;37.53;99903.75;4387135;32;34660;-82
2022/05/02 08:47:12;;;;;;;;;;;;;;;21.90;36.62;99908.91;4381555;32;34438;-83
2022/05/02 08:49:39;;;;;;;;;;;;;;;21.74;36.78;99903.97;4397601;32;34495;-82
2022/05/02 08:52:10;;;;;;;;;;;;;;;21.63;39.37;99902.69;4370345;32;33428;-83
2022/05/02 08:54:37;;;;;;;;;;;;;;;21.88;40.91;99903.69;4388380;32;34374;-84
2022/05/02 08:57:24;;;;;;;;;;;;;;;21.91;36.81;99892.44;4381602;32;36049;-82
2022/05/02 08:59:51;;;;;;;;;;;;;;;21.95;37.10;99901.81;4392625;32;34383;-82
2022/05/02 09:02:37;;;;;;;;;;;;;;;22.20;36.22;99894.59;4387624;32;32784;-85
2022/05/02 09:05:17;;;;;;;;;;;;;;;22.04;36.86;99886.13;4379346;32;33763;-82
2022/05/02 09:07:51;;;;;;;;;;;;;;;21.91;40.06;99891.59;4376594;32;33545;-81
2022/05/02 09:10:25;;;;;;;;;;;;;;;21.87;36.82;99888.50;4380917;32;34421;-83
2022/05/02 09:13:13;;;;;;;;;;;;;;;21.84;38.06;99896.22;4382509;32;33161;-83
2022/05/02 09:15:43;;;;;;;;;;;;;;;21.63;38.34;99893.75;4367035;32;34117;-82
2022/05/02 09:18:20;;;;;;;;;;;;;;;21.42;40.65;99894.84;4392232;32;34563;-82
2022/05/02 09:21:21;;;;;;;;;;;;;;;21.53;38.50;99894.19;4387600;32;34848;-82
2022/05/02 09:24:04;;;;;;;;;;;;;;;21.21;39.30;99889.66;4369057;32;32785;-83
2022/05/02 09:26:46;;;;;;;;;;;;;;;21.37;39.65;99891.91;4376164;32;34470;-83
2022/05/02 09:29:17;;;;;;;;;;;;;;;21.20;39.92;99893.41;4391117;32;34845;-81
2022/05/02 09:31:56;;;;;;;;;;;;;;;20.95;38.94;99886.97;4390134;32;34430;-83
2022/05/02 09:34:32;;;;;;;;;;;;;;;20.94;38.32;99892.56;4372121;32;33929;-83
2022/05/02 09:37:07;;;;;;;;;;;;;;;20.73;39.39;99896.31;4378747;32;34010;-83
2022/05/02 09:39:37;;;;;;;;;;;;;;;20.43;39.02;99890.62;4370661;32;35218;-83
2022/05/02 09:42:11;;;;;;;;;;;;;;;20.89;38.18;99884.28;4370610;32;35008;-82
2022/05/02 09:50:35;;;;;;;;;;;;;;;20.64;37.98;99891.28;4395568;32;34663;-83
2022/05/02 09:53:21;;;;;;;;;;;;;;;20.49;39.71;99893.31;4383140;32;34704;-83
2022/05/02 09:58:42;;;;;;;;;;;;;;;20.64;38.51;99886.72;4373502;32;34160;-83
2022/05/02 10:01:17;;;;;;;;;;;;;;;20.89;38.32;99882.38;4394507;32;36099;-82
2022/05/02 10:03:59;;;;;;;;;;;;;;;21.12;38.28;99877.41;4384908;32;35388;-83
2022/05/02 10:06:30;;;;;;;;;;;;;;;21.50;38.80;99869.41;4385052;32;33792;-84
2022/05/02 10:09:01;;;;;;;;;;;;;;;21.43;41.18;99872.13;4373401;32;33872;-83
2022/05/02 10:11:48;;;;;;;;;;;;;;;21.77;37.46;99863.75;4374080;32;34834;-83
2022/05/02 10:14:22;;;;;;;;;;;;;;;21.64;36.88;99868.34;4386041;32;34842;-83
2022/05/02 10:17:16;;;;;;;;;;;;;;;21.12;38.19;99865.72;4390780;32;33595;-83
2022/05/02 10:20:04;;;;;;;;;;;;;;;22.01;38.56;99860.28;4384206;32;33429;-82
2022/05/02 10:22:50;;;;;;;;;;;;;;;22.07;37.95;99850.47;4387787;32;35907;-82
2022/05/02 10:25:21;;;;;;;;;;;;;;;22.65;37.52;99842.00;4394559;32;35488;-82
2022/05/02 10:28:07;;;;;;;;;;;;;;;22.65;34.24;99838.47;4363589;32;32492;-83
2022/05/02 10:30:55;;;;;;;;;;;;;;;23.03;33.33;99837.28;4394405;32;34233;-83
2022/05/02 10:33:25;;;;;;;;;;;;;;;22.61;36.60;99840.78;4383213;32;35593;-82
2022/05/02 10:35:52;;;;;;;;;;;;;;;22.62;35.94;99836.16;4380725;32;34654;-83
2022/05/02 10:38:21;;;;;;;;;;;;;;;23.00;35.96;99832.31;4383092;32;32699;-83
2022/05/02 10:40:50;;;;;;;;;;;;;;;23.35;35.05;99824.47;4383537;32;33428;-83
2022/05/02 10:43:24;;;;;;;;;;;;;;;23.34;35.31;99820.94;4378923;32;35182;-83
2022/05/02 10:45:52;;;;;;;;;;;;;;;23.57;32.38;99829.22;4377564;32;35427;-83
2022/05/02 10:48:19;;;;;;;;;;;;;;;23.53;32.25;99828.03;4372465;32;33774;-82
2022/05/02 10:50:59;;;;;;;;;;;;;;;23.67;35.77;99824.09;4389594;32;33516;-82
2022/05/02 10:53:36;;;;;;;;;;;;;;;23.71;32.23;99825.31;4378946;32;34563;-83
2022/05/02 10:56:14;;;;;;;;;;;;;;;23.55;31.79;99828.63;4392392;32;34670;-82
2022/05/02 10:58:42;;;;;;;;;;;;;;;23.21;31.12;99826.50;4379895;32;34284;-83
2022/05/02 11:01:09;;;;;;;;;;;;;;;22.79;30.92;99838.12;4377397;32;33742;-83
2022/05/02 11:03:51;;;;;;;;;;;;;;;23.06;32.45;99830.59;4391796;32;35088;-81
2022/05/02 11:06:40;;;;;;;;;;;;;;;23.61;31.22;99825.03;4374045;32;34725;-83
2022/05/02 11:09:07;;;;;;;;;;;;;;;23.13;30.99;99829.47;4376706;32;33581;-83
2022/05/02 11:11:39;;;;;;;;;;;;;;;23.40;29.72;99825.44;4376556;32;33725;-83
2022/05/02 11:14:11;;;;;;;;;;;;;;;22.39;32.65;99823.16;4389069;32;34710;-83
2022/05/02 11:16:59;;;;;;;;;;;;;;;22.95;32.25;99817.75;4371455;32;34261;-83
2022/05/02 11:22:20;;;;;;;;;;;;;;;23.58;33.98;99821.94;4380888;32;34185;-83
2022/05/02 11:25:08;;;;;;;;;;;;;;;23.48;31.09;99824.34;4386806;32;34998;-84
2022/05/02 11:27:55;;;;;;;;;;;;;;;24.00;33.73;99819.94;4378976;32;34131;-82
2022/05/02 11:30:24;;;;;;;;;;;;;;;24.13;31.12;99819.75;4391892;32;33129;-83
2022/05/02 11:33:10;;;;;;;;;;;;;;;24.25;31.37;99819.78;4372016;32;32511;-84
2022/05/02 11:35:38;;;;;;;;;;;;;;;23.80;31.42;99813.09;4392444;32;34891;-83
2022/05/02 11:38:06;;;;;;;;;;;;;;;24.32;30.82;99815.94;4380625;32;35039;-85
2022/05/02 11:40:35;;;;;;;;;;;;;;;24.65;32.18;99804.56;4395471;32;33321;-83
2022/05/02 11:43:03;;;;;;;;;;;;;;;24.95;30.51;99803.41;4391679;32;33517;-83
2022/05/02 11:45:34;;;;;;;;;;;;;;;24.63;32.05;99803.97;4380101;32;34963;-83
2022/05/02 11:48:25;;;;;;;;;;;;;;;25.10;29.55;99806.47;4377566;32;32894;-83
2022/05/02 11:50:54;;;;;;;;;;;;;;;25.34;29.27;99802.72;4386327;32;33243;-83
2022/05/02 11:53:21;;;;;;;;;;;;;;;25.03;28.99;99797.59;4372276;32;33359;-83
2022/05/02 11:55:49;;;;;;;;;;;;;;;24.87;27.87;99797.47;4366472;32;34782;-83
2022/05/02 11:58:25;;;;;;;;;;;;;;;25.22;30.39;99796.44;4384154;32;35185;-83
2022/05/02 12:01:02;;;;;;;;;;;;;;;25.09;28.09;99788.50;4376020;32;33404;-84
2022/05/02 12:03:50;;;;;;;;;;;;;;;25.07;27.10;99793.34;4374382;32;34195;-82
2022/05/02 12:06:17;;;;;;;;;;;;;;;25.05;26.88;99784.59;4390545;32;35905;-82
2022/05/02 12:08:45;;;;;;;;;;;;;;;24.11;30.20;99789.25;4382297;32;34499;-83
2022/05/02 12:11:14;;;;;;;;;;;;;;;23.75;30.60;99783.03;4376179;32;33160;-83
2022/05/02 12:13:44;;;;;;;;;;;;;;;24.43;30.32;99781.66;4388956;32;34976;-84
2022/05/02 12:22:53;;;;;;;;;;;;;;;25.91;28.85;99773.69;4362286;32;31446;-85
2022/05/02 12:29:47;;;;;;;;;;;;;;;26.19;28.21;99760.03;4296588;33;35125;-84
2022/05/02 12:45:39;;;;;;;;;;;;;;;26.85;27.33;99741.81;4272752;33;33183;-83
2022/05/02 12:55:18;;;;;;;;;;;;;;;27.99;23.02;99712.47;4241377;33;35772;-84
2022/05/02 13:02:09;;;;;;;;;;;;;;;27.29;25.36;99716.25;4236847;33;34328;-85
2022/05/02 13:24:35;;;;;;;;;;;;;;;27.27;23.51;99689.19;4347613;32;34966;-86
2022/05/02 13:31:20;;;;;;;;;;;;;;;26.80;25.53;99678.12;4380999;32;35048;-86
2022/05/02 13:47:07;;;;;;;;;;;;;;;28.02;22.30;99665.44;4387606;32;33791;-85
2022/05/02 13:53:09;;;;;;;;;;;;;;;28.87;21.02;99657.06;4420145;32;32065;-85
2022/05/02 13:56:17;;;;;;;;;;;;;;;28.94;21.08;99650.28;4401701;32;33885;-84
2022/05/02 13:59:14;;;;;;;;;;;;;;;29.04;22.12;99641.28;4418577;32;36253;-84
2022/05/02 14:11:50;;;;;;;;;;;;;;;;;;;;;
2022/05/02 14:24:31;;;;;;;;;;;;;;;;;;;;;
2022/05/02 14:33:55;;;;;;;;;;;;;;;30.16;19.78;99628.44;4327198;33;33413;-85
2022/05/02 14:40:33;;;;;;;;;;;;;;;31.82;20.50;99611.97;4300897;33;34363;-83
2022/05/02 14:46:11;;;;;;;;;;;;;;;;;;;;;
2022/05/02 14:52:42;;;;;;;;;;;;;;;28.83;23.17;99615.69;4312273;33;35097;-84
2022/05/02 14:58:21;;;;;;;;;;;;;;;28.47;22.40;99616.59;4352917;32;34131;-86
2022/05/02 15:01:41;;;;;;;;;;;;;;;28.88;23.21;99617.66;4351047;32;36725;-84
2022/05/02 15:04:40;;;;;;;;;;;;;;;29.78;22.60;99618.81;4365080;32;33512;-84
2022/05/02 15:11:12;;;;;;;;;;;;;;;29.03;21.70;99609.50;4339469;32;33730;-85
2022/05/02 15:15:26;;;;;;;;;;;;;;;28.26;20.42;99606.56;4358108;32;34639;-83
2022/05/02 15:37:42;;;;;;;;;;;;;;;27.06;26.11;99603.66;4302813;33;32930;-83
2022/05/02 16:00:34;;;;;;;;;;;;;;;24.04;28.55;99624.59;4264748;33;33322;-84
2022/05/02 16:11:03;;;;;;;;;;;;;;;21.70;32.46;99632.75;4209002;33;1994551;-86
2022/05/02 16:17:19;;;;;;;;;;;;;;;21.64;32.44;99635.47;4334078;32;34903;-88
2022/05/02 16:23:54;;;;;;;;;;;;;;;21.58;32.58;99628.22;4341574;33;34126;-85
2022/05/02 16:36:16;;;;;;;;;;;;;;;21.93;32.28;99619.47;4343883;32;32806;-84
2022/05/02 16:39:32;;;;;;;;;;;;;;;21.97;32.02;99617.12;4358305;32;32961;-86
2022/05/02 16:46:02;;;;;;;;;;;;;;;22.52;32.29;99621.63;4351872;32;35474;-83
2022/05/02 16:58:36;;;;;;;;;;;;;;;23.15;31.01;99610.28;4341738;32;33428;-85
2022/05/02 17:04:30;;;;;;;;;;;;;;;23.56;31.83;99604.03;4306735;33;32335;-83
2022/05/02 17:08:01;;;;;;;;;;;;;;;23.29;31.55;99603.59;4310801;33;33634;-85
2022/05/02 17:19:57;;;;;;;;;;;;;;;24.07;32.59;99602.38;4319783;33;34080;-84
2022/05/02 17:23:29;;;;;;;;;;;;;;;24.15;31.93;99605.59;4307912;33;34482;-85
2022/05/02 17:33:20;;;;;;;;;;;;;;;23.49;32.78;99601.41;4313262;33;34323;-84
2022/05/02 17:36:08;;;;;;;;;;;;;;;23.40;33.25;99602.00;4306085;33;35197;-84
2022/05/02 17:45:09;;;;;;;;;;;;;;;23.60;32.54;99611.47;4363418;32;34500;-84
2022/05/02 17:51:27;;;;;;;;;;;;;;;23.40;33.54;99621.81;4369667;32;33786;-85
2022/05/02 18:04:26;;;;;;;;;;;;;;;22.88;35.04;99627.91;4317480;33;34497;-85
2022/05/02 18:07:23;;;;;;;;;;;;;;;22.86;35.18;99630.00;4272379;33;33212;-84
2022/05/02 18:10:48;;;;;;;;;;;;;;;22.84;35.10;99631.31;4273904;33;34513;-85
2022/05/02 18:14:17;;;;;;;;;;;;;;;22.75;34.97;99636.19;4280506;33;34336;-83
2022/05/02 18:26:43;;;;;;;;;;;;;;;22.20;36.75;99636.31;4358305;32;34480;-84
2022/05/02 18:39:57;;;;;;;;;;;;;;;22.07;35.79;99653.50;4342565;33;35764;-86
2022/05/02 18:55:49;;;;;;;;;;;;;;;;;;;;;
2022/05/02 19:01:54;;;;;;;;;;;;;;;21.29;37.01;99666.69;4330877;33;33843;-86
2022/05/02 19:04:52;;;;;;;;;;;;;;;20.77;38.01;99670.41;4292009;33;35330;-84
2022/05/02 19:08:00;;;;;;;;;;;;;;;20.53;38.96;99683.78;4313844;33;34663;-85
2022/05/02 19:11:51;;;;;;;;;;;;;;;;;;;;;
2022/05/02 19:20:37;;;;;;;;;;;;;;;;;;;;;
2022/05/02 19:24:09;;;;;;;;;;;;;;;;;;;;;
2022/05/02 19:27:51;;;;;;;;;;;;;;;20.49;39.75;99697.91;4332589;33;32984;-83
2022/05/02 19:33:27;;;;;;;;;;;;;;;;;;;;;
2022/05/02 19:42:46;;;;;;;;;;;;;;;;;;;;;
2022/05/02 19:45:39;;;;;;;;;;;;;;;19.72;42.02;99718.41;4267176;33;33912;-84
2022/05/02 20:01:39;;;;;;;;;;;;;;;18.73;41.38;99740.56;4258738;33;32592;-85
2022/05/02 20:08:04;;;;;;;;;;;;;;;18.40;41.99;99749.41;4239682;33;34936;-83
2022/05/02 20:10:58;;;;;;;;;;;;;;;18.84;41.58;99752.62;4273879;33;35235;-84
2022/05/02 20:19:58;;;;;;;;;;;;;;;18.05;44.00;99750.31;4327984;28;34016;-81
2022/05/02 20:22:26;;;;;;;;;;;;;;;18.67;43.56;99738.62;4362855;32;34649;-81
2022/05/02 20:24:54;;;;;;;;;;;;;;;18.79;43.29;99733.53;4409632;32;34294;-81
2022/05/02 20:27:22;;;;;;;;;;;;;;;18.30;43.14;99732.75;4444283;32;34085;-81
2022/05/02 20:29:50;;;;;;;;;;;;;;;18.65;42.60;99737.16;4443463;32;34329;-81
2022/05/02 20:37:52;;;;;;;;;;;;;;;18.46;43.96;99738.69;4433229;32;34870;-82
2022/05/02 20:40:19;;;;;;;;;;;;;;;18.42;44.37;99739.28;4419008;32;35332;-81
2022/05/02 20:42:50;;;;;;;;;;;;;;;18.35;44.27;99735.69;4405834;32;33448;-81
2022/05/02 20:45:18;;;;;;;;;;;;;;;18.14;46.10;99749.16;4431110;32;32179;-81
2022/05/02 20:47:48;;;;;;;;;;;;;;;18.24;45.71;99744.28;4419113;32;34694;-80
2022/05/02 20:50:16;;;;;;;;;;;;;;;18.26;45.38;99737.69;4406006;32;34202;-81
2022/05/02 20:52:43;;;;;;;;;;;;;;;18.29;45.23;99742.69;4418315;32;35005;-82
2022/05/02 20:55:12;;;;;;;;;;;;;;;18.17;45.71;99752.31;4418654;32;33301;-83
2022/05/02 20:57:40;;;;;;;;;;;;;;;17.92;46.00;99745.62;4443996;32;35003;-83
2022/05/02 21:00:08;;;;;;;;;;;;;;;17.93;46.17;99744.59;4405249;32;34606;-83
2022/05/02 21:05:52;;;;;;;;;;;;;;;17.82;45.93;99741.59;4424907;32;32735;-81
2022/05/02 21:08:23;;;;;;;;;;;;;;;17.74;45.97;99741.69;4431139;32;34061;-84
2022/05/02 21:11:09;;;;;;;;;;;;;;;17.62;45.74;99743.22;4431053;32;34772;-83
2022/05/02 21:13:50;;;;;;;;;;;;;;;17.57;45.58;99741.09;4443574;32;34237;-85
2022/05/02 21:16:32;;;;;;;;;;;;;;;17.57;45.98;99745.66;4418455;32;32610;-84
2022/05/02 21:19:00;;;;;;;;;;;;;;;17.49;46.09;99751.16;4418682;32;34042;-84
2022/05/02 21:21:37;;;;;;;;;;;;;;;17.44;46.46;99750.06;4421482;32;34581;-84
2022/05/02 21:24:24;;;;;;;;;;;;;;;17.37;46.31;99747.28;4431224;32;34049;-83
2022/05/02 21:26:59;;;;;;;;;;;;;;;17.28;46.41;99745.69;4430624;32;32983;-83
2022/05/02 21:29:26;;;;;;;;;;;;;;;17.24;46.25;99748.94;4418250;32;33238;-84
2022/05/02 21:32:03;;;;;;;;;;;;;;;17.19;46.75;99740.59;4445024;32;35286;-83
2022/05/02 21:34:41;;;;;;;;;;;;;;;17.14;47.01;99737.62;4445721;32;35132;-83
2022/05/02 21:37:08;;;;;;;;;;;;;;;17.06;47.16;99738.56;4443684;32;33867;-84
2022/05/02 21:39:36;;;;;;;;;;;;;;;16.99;47.13;99742.22;4430497;32;33957;-83
2022/05/02 21:42:04;;;;;;;;;;;;;;;16.94;47.17;99736.53;4443655;32;35534;-83
2022/05/02 21:44:31;;;;;;;;;;;;;;;16.84;47.52;99734.16;4431159;32;35342;-84
2022/05/02 21:46:58;;;;;;;;;;;;;;;16.77;47.73;99729.69;4418036;32;32411;-84
2022/05/02 21:49:26;;;;;;;;;;;;;;;16.73;47.63;99733.75;4417995;32;33604;-84
2022/05/02 21:51:54;;;;;;;;;;;;;;;16.69;47.73;99735.97;4418192;32;35891;-83
2022/05/02 21:54:22;;;;;;;;;;;;;;;16.62;47.67;99726.16;4430893;32;34437;-84
2022/05/02 21:56:49;;;;;;;;;;;;;;;16.52;47.91;99730.97;4443535;32;32760;-84
2022/05/02 21:59:17;;;;;;;;;;;;;;;16.42;48.24;99722.34;4444702;32;34312;-83
2022/05/02 22:01:45;;;;;;;;;;;;;;;16.42;48.20;99723.16;4417983;32;35244;-83
2022/05/02 22:04:12;;;;;;;;;;;;;;;16.35;48.34;99721.38;4430461;32;33990;-85
2022/05/02 22:06:40;;;;;;;;;;;;;;;16.38;48.10;99719.19;4430547;32;32379;-83
2022/05/02 22:09:07;;;;;;;;;;;;;;;16.31;48.10;99725.41;4430658;32;33719;-84
2022/05/02 22:11:35;;;;;;;;;;;;;;;16.23;48.41;99723.66;4429234;32;33496;-84
2022/05/02 22:14:02;;;;;;;;;;;;;;;16.19;48.38;99719.69;4444436;32;35150;-84
2022/05/02 22:16:30;;;;;;;;;;;;;;;16.08;48.61;99714.75;4443110;32;33202;-84
2022/05/02 22:18:57;;;;;;;;;;;;;;;16.05;48.74;99720.47;4429971;32;33926;-84
2022/05/02 22:21:25;;;;;;;;;;;;;;;15.99;48.92;99715.00;4444100;32;35909;-83
2022/05/02 22:23:53;;;;;;;;;;;;;;;15.35;51.11;99712.75;4442981;32;35081;-83
2022/05/02 22:26:20;;;;;;;;;;;;;;;15.48;50.81;99711.16;4404828;32;33020;-84
2022/05/02 22:28:48;;;;;;;;;;;;;;;15.70;50.02;99714.88;4430481;32;33514;-83
2022/05/02 22:31:16;;;;;;;;;;;;;;;15.66;50.33;99713.56;4430235;32;35009;-84
2022/05/02 22:33:47;;;;;;;;;;;;;;;15.76;49.82;99706.13;4442984;32;34347;-84
2022/05/02 22:36:15;;;;;;;;;;;;;;;15.81;49.47;99703.72;4417824;32;31598;-84
2022/05/02 22:38:43;;;;;;;;;;;;;;;15.74;49.45;99711.66;4430515;32;34251;-83
2022/05/02 22:41:13;;;;;;;;;;;;;;;15.57;50.19;99707.44;4439197;32;34466;-84
2022/05/02 22:43:40;;;;;;;;;;;;;;;15.49;50.45;99709.34;4430503;32;35490;-84
2022/05/02 22:46:08;;;;;;;;;;;;;;;15.47;50.50;99700.62;4429804;32;32758;-85
2022/05/02 22:48:36;;;;;;;;;;;;;;;14.87;52.80;99703.09;4442735;32;33586;-84
2022/05/02 22:51:04;;;;;;;;;;;;;;;15.36;51.05;99703.69;4444114;32;35213;-84
2022/05/02 22:53:31;;;;;;;;;;;;;;;15.41;50.81;99698.66;4442449;32;34567;-83
2022/05/02 22:55:59;;;;;;;;;;;;;;;14.76;53.41;99706.13;4442768;32;31676;-83
2022/05/02 22:58:31;;;;;;;;;;;;;;;15.22;51.87;99699.91;4429936;32;32463;-83
2022/05/02 23:01:00;;;;;;;;;;;;;;;14.97;52.37;99705.56;4404290;32;34263;-84
2022/05/02 23:03:50;;;;;;;;;;;;;;;15.19;52.09;99694.03;4423679;32;34104;-84
2022/05/02 23:06:50;;;;;;;;;;;;;;;15.34;51.23;99697.69;4429186;32;32198;-83
2022/05/02 23:09:18;;;;;;;;;;;;;;;15.12;52.29;99695.78;4382414;32;32668;-83
2022/05/02 23:11:46;;;;;;;;;;;;;;;15.20;51.97;99690.38;4370369;32;35127;-84
2022/05/02 23:14:14;;;;;;;;;;;;;;;15.40;51.11;99694.31;4370144;32;33958;-83
2022/05/02 23:16:42;;;;;;;;;;;;;;;15.44;50.97;99691.09;4382910;32;32529;-84
2022/05/02 23:19:09;;;;;;;;;;;;;;;15.46;50.92;99702.47;4369865;32;33743;-83
2022/05/02 23:21:37;;;;;;;;;;;;;;;15.52;50.76;99701.78;4370102;32;34606;-84
2022/05/02 23:24:06;;;;;;;;;;;;;;;15.55;50.94;99698.72;4371593;32;33081;-84
2022/05/02 23:26:33;;;;;;;;;;;;;;;15.39;51.37;99698.81;4371865;32;33665;-84
2022/05/02 23:29:00;;;;;;;;;;;;;;;15.44;51.35;99685.75;4385255;32;34530;-83
2022/05/02 23:31:30;;;;;;;;;;;;;;;15.48;51.29;99686.22;4372146;32;35122;-84
2022/05/02 23:34:03;;;;;;;;;;;;;;;15.49;51.40;99691.38;4397287;32;34442;-83
2022/05/02 23:36:47;;;;;;;;;;;;;;;15.30;51.90;99694.53;4385343;32;34037;-84
2022/05/02 23:39:17;;;;;;;;;;;;;;;15.48;51.46;99697.75;4371759;32;33750;-84
2022/05/02 23:41:45;;;;;;;;;;;;;;;15.51;51.26;99694.72;4359626;32;34406;-84
2022/05/02 23:44:13;;;;;;;;;;;;;;;15.56;51.14;99688.81;4378563;32;32945;-84
2022/05/02 23:46:43;;;;;;;;;;;;;;;15.61;50.97;99689.13;4422566;32;31884;-84
2022/05/02 23:49:13;;;;;;;;;;;;;;;15.48;51.48;99681.69;4418098;32;32560;-84